Terminal Aerodrome Forecast
Issued by NWS Mt. Holly, NJ

Home | Current Version | Previous Version | Text Only | Print | Product List | Glossary On
Versions: 1 2 3 4 5 6 7 8 9 10 11 12 13 14 15 16 17 18 19 20 21 22 23
035
FTUS41 KPHI 171811 AAA
TAFTTN
TAF AMD
KTTN 171811Z 1718/1818 14008KT P6SM BKN050
     FM172200 14006KT P6SM -SN OVC050
     FM172300 14006KT 2SM -SN OVC010
     FM180000 10004KT 1/2SM SN VV002
     FM180400 VRB03KT 1SM -SNRA BR OVC005
     FM180600 VRB03KT 3SM BR OVC005
     FM180800 30008KT P6SM BKN015
     FM181000 31008G16KT P6SM SCT035
     FM181400 31008KT P6SM SCT050=

USA.gov is the U.S. government's official web portal to all federal, state and local government web resources and services.